sensor_id;sensor_type;location;lat;lon;timestamp;P1;durP1;ratioP1;P2;durP2;ratioP2
42590;SDS011;28218;53.342;-6.216;2023-07-20T00:00:01;6.32;;;2.20;;
42590;SDS011;28218;53.342;-6.216;2023-07-20T00:02:30;2.85;;;2.22;;
42590;SDS011;28218;53.342;-6.216;2023-07-20T00:04:58;3.25;;;2.17;;
42590;SDS011;28218;53.342;-6.216;2023-07-20T00:07:26;6.80;;;2.08;;
42590;SDS011;28218;53.342;-6.216;2023-07-20T00:09:55;5.03;;;1.95;;
42590;SDS011;28218;53.342;-6.216;2023-07-20T00:12:23;2.20;;;2.00;;
42590;SDS011;28218;53.342;-6.216;2023-07-20T00:14:53;2.63;;;2.08;;
42590;SDS011;28218;53.342;-6.216;2023-07-20T00:17:21;7.63;;;1.70;;
42590;SDS011;28218;53.342;-6.216;2023-07-20T00:19:50;1.90;;;1.80;;
42590;SDS011;28218;53.342;-6.216;2023-07-20T00:22:18;6.40;;;2.40;;
42590;SDS011;28218;53.342;-6.216;2023-07-20T00:24:46;2.35;;;1.77;;
42590;SDS011;28218;53.342;-6.216;2023-07-20T00:27:16;2.08;;;1.88;;
42590;SDS011;28218;53.342;-6.216;2023-07-20T00:29:44;2.78;;;1.95;;
42590;SDS011;28218;53.342;-6.216;2023-07-20T00:32:14;4.00;;;1.77;;
42590;SDS011;28218;53.342;-6.216;2023-07-20T00:34:42;2.58;;;1.90;;
42590;SDS011;28218;53.342;-6.216;2023-07-20T00:37:10;1.70;;;1.60;;
42590;SDS011;28218;53.342;-6.216;2023-07-20T00:39:39;4.32;;;1.80;;
42590;SDS011;28218;53.342;-6.216;2023-07-20T00:42:07;6.28;;;2.08;;
42590;SDS011;28218;53.342;-6.216;2023-07-20T00:44:35;2.50;;;1.70;;
42590;SDS011;28218;53.342;-6.216;2023-07-20T00:47:03;3.42;;;2.30;;
42590;SDS011;28218;53.342;-6.216;2023-07-20T00:49:34;6.57;;;2.10;;
42590;SDS011;28218;53.342;-6.216;2023-07-20T00:52:02;4.43;;;1.50;;
42590;SDS011;28218;53.342;-6.216;2023-07-20T00:54:34;2.47;;;1.90;;
42590;SDS011;28218;53.342;-6.216;2023-07-20T00:57:03;8.40;;;2.08;;
42590;SDS011;28218;53.342;-6.216;2023-07-20T00:59:34;3.00;;;2.05;;
42590;SDS011;28218;53.342;-6.216;2023-07-20T01:02:03;3.35;;;1.90;;
42590;SDS011;28218;53.342;-6.216;2023-07-20T01:04:33;3.75;;;1.98;;
42590;SDS011;28218;53.342;-6.216;2023-07-20T01:09:54;2.05;;;1.85;;
42590;SDS011;28218;53.342;-6.216;2023-07-20T01:12:30;3.97;;;1.92;;
42590;SDS011;28218;53.342;-6.216;2023-07-20T01:15:04;2.60;;;2.05;;
42590;SDS011;28218;53.342;-6.216;2023-07-20T01:17:34;2.15;;;1.77;;
42590;SDS011;28218;53.342;-6.216;2023-07-20T01:20:05;3.40;;;2.30;;
42590;SDS011;28218;53.342;-6.216;2023-07-20T01:22:45;2.65;;;2.00;;
42590;SDS011;28218;53.342;-6.216;2023-07-20T01:25:30;3.00;;;2.17;;
42590;SDS011;28218;53.342;-6.216;2023-07-20T01:31:13;2.50;;;1.70;;
42590;SDS011;28218;53.342;-6.216;2023-07-20T01:33:48;1.67;;;1.58;;
42590;SDS011;28218;53.342;-6.216;2023-07-20T01:36:17;2.40;;;2.10;;
42590;SDS011;28218;53.342;-6.216;2023-07-20T01:38:47;3.40;;;2.10;;
42590;SDS011;28218;53.342;-6.216;2023-07-20T01:41:15;1.88;;;1.65;;
42590;SDS011;28218;53.342;-6.216;2023-07-20T01:43:45;3.15;;;2.08;;
42590;SDS011;28218;53.342;-6.216;2023-07-20T01:46:15;3.60;;;2.05;;
42590;SDS011;28218;53.342;-6.216;2023-07-20T01:48:43;2.30;;;2.10;;
42590;SDS011;28218;53.342;-6.216;2023-07-20T01:51:12;2.60;;;1.90;;
42590;SDS011;28218;53.342;-6.216;2023-07-20T01:53:40;3.42;;;2.15;;
42590;SDS011;28218;53.342;-6.216;2023-07-20T01:56:09;3.20;;;2.10;;
42590;SDS011;28218;53.342;-6.216;2023-07-20T01:58:38;3.92;;;1.80;;
42590;SDS011;28218;53.342;-6.216;2023-07-20T02:01:06;4.28;;;2.15;;
42590;SDS011;28218;53.342;-6.216;2023-07-20T02:03:36;2.20;;;2.05;;
42590;SDS011;28218;53.342;-6.216;2023-07-20T02:06:04;2.53;;;2.10;;
42590;SDS011;28218;53.342;-6.216;2023-07-20T02:08:32;4.72;;;2.55;;
42590;SDS011;28218;53.342;-6.216;2023-07-20T02:11:01;6.55;;;2.17;;
42590;SDS011;28218;53.342;-6.216;2023-07-20T02:13:31;2.80;;;2.15;;
42590;SDS011;28218;53.342;-6.216;2023-07-20T02:15:59;3.05;;;1.98;;
42590;SDS011;28218;53.342;-6.216;2023-07-20T02:18:27;4.32;;;2.10;;
42590;SDS011;28218;53.342;-6.216;2023-07-20T02:20:56;3.78;;;2.20;;
42590;SDS011;28218;53.342;-6.216;2023-07-20T02:23:25;2.60;;;2.40;;
42590;SDS011;28218;53.342;-6.216;2023-07-20T02:25:54;3.22;;;2.40;;
42590;SDS011;28218;53.342;-6.216;2023-07-20T02:28:22;5.32;;;2.20;;
42590;SDS011;28218;53.342;-6.216;2023-07-20T02:30:51;3.78;;;2.20;;
42590;SDS011;28218;53.342;-6.216;2023-07-20T02:33:20;4.55;;;2.45;;
42590;SDS011;28218;53.342;-6.216;2023-07-20T02:35:48;3.95;;;2.22;;
42590;SDS011;28218;53.342;-6.216;2023-07-20T02:38:18;4.07;;;2.40;;
42590;SDS011;28218;53.342;-6.216;2023-07-20T02:40:46;3.67;;;2.28;;
42590;SDS011;28218;53.342;-6.216;2023-07-20T02:43:15;3.80;;;2.50;;
42590;SDS011;28218;53.342;-6.216;2023-07-20T02:45:43;6.30;;;2.72;;
42590;SDS011;28218;53.342;-6.216;2023-07-20T02:48:11;4.43;;;2.28;;
42590;SDS011;28218;53.342;-6.216;2023-07-20T02:50:39;3.65;;;2.60;;
42590;SDS011;28218;53.342;-6.216;2023-07-20T02:53:08;3.78;;;2.83;;
42590;SDS011;28218;53.342;-6.216;2023-07-20T02:55:37;4.78;;;2.47;;
42590;SDS011;28218;53.342;-6.216;2023-07-20T02:58:05;3.33;;;2.28;;
42590;SDS011;28218;53.342;-6.216;2023-07-20T03:00:33;2.13;;;1.92;;
42590;SDS011;28218;53.342;-6.216;2023-07-20T03:03:02;3.20;;;2.42;;
42590;SDS011;28218;53.342;-6.216;2023-07-20T03:05:30;2.80;;;2.17;;
42590;SDS011;28218;53.342;-6.216;2023-07-20T03:07:59;3.20;;;2.17;;
42590;SDS011;28218;53.342;-6.216;2023-07-20T03:10:29;3.70;;;2.50;;
42590;SDS011;28218;53.342;-6.216;2023-07-20T03:12:58;2.55;;;2.30;;
42590;SDS011;28218;53.342;-6.216;2023-07-20T03:15:27;5.38;;;2.60;;
42590;SDS011;28218;53.342;-6.216;2023-07-20T03:17:55;3.58;;;2.78;;
42590;SDS011;28218;53.342;-6.216;2023-07-20T03:20:25;3.13;;;2.40;;
42590;SDS011;28218;53.342;-6.216;2023-07-20T03:22:53;6.10;;;3.17;;
42590;SDS011;28218;53.342;-6.216;2023-07-20T03:25:21;5.00;;;3.00;;
42590;SDS011;28218;53.342;-6.216;2023-07-20T03:27:53;3.72;;;2.25;;
42590;SDS011;28218;53.342;-6.216;2023-07-20T03:30:22;3.70;;;2.63;;
42590;SDS011;28218;53.342;-6.216;2023-07-20T03:32:50;6.68;;;3.08;;
42590;SDS011;28218;53.342;-6.216;2023-07-20T03:35:19;4.10;;;2.90;;
42590;SDS011;28218;53.342;-6.216;2023-07-20T03:37:47;5.63;;;2.85;;
42590;SDS011;28218;53.342;-6.216;2023-07-20T03:40:15;4.88;;;2.75;;
42590;SDS011;28218;53.342;-6.216;2023-07-20T03:42:43;9.38;;;3.95;;
42590;SDS011;28218;53.342;-6.216;2023-07-20T03:45:12;4.18;;;2.75;;
42590;SDS011;28218;53.342;-6.216;2023-07-20T03:47:42;4.93;;;2.70;;
42590;SDS011;28218;53.342;-6.216;2023-07-20T03:50:11;4.45;;;2.70;;
42590;SDS011;28218;53.342;-6.216;2023-07-20T03:52:39;3.20;;;2.42;;
42590;SDS011;28218;53.342;-6.216;2023-07-20T03:55:08;3.53;;;2.80;;
42590;SDS011;28218;53.342;-6.216;2023-07-20T03:57:36;3.97;;;2.83;;
42590;SDS011;28218;53.342;-6.216;2023-07-20T04:00:05;3.42;;;2.63;;
42590;SDS011;28218;53.342;-6.216;2023-07-20T04:02:34;5.18;;;3.10;;
42590;SDS011;28218;53.342;-6.216;2023-07-20T04:05:04;3.25;;;2.90;;
42590;SDS011;28218;53.342;-6.216;2023-07-20T04:07:33;5.07;;;3.33;;
42590;SDS011;28218;53.342;-6.216;2023-07-20T04:10:01;3.17;;;2.67;;
42590;SDS011;28218;53.342;-6.216;2023-07-20T04:12:30;3.90;;;2.65;;
42590;SDS011;28218;53.342;-6.216;2023-07-20T04:14:58;3.58;;;2.78;;
42590;SDS011;28218;53.342;-6.216;2023-07-20T04:17:27;5.32;;;3.25;;
42590;SDS011;28218;53.342;-6.216;2023-07-20T04:19:55;8.88;;;2.95;;
42590;SDS011;28218;53.342;-6.216;2023-07-20T04:22:25;6.05;;;3.00;;
42590;SDS011;28218;53.342;-6.216;2023-07-20T04:24:53;4.63;;;2.80;;
42590;SDS011;28218;53.342;-6.216;2023-07-20T04:27:21;5.72;;;3.15;;
42590;SDS011;28218;53.342;-6.216;2023-07-20T04:29:50;8.98;;;3.55;;
42590;SDS011;28218;53.342;-6.216;2023-07-20T04:32:18;3.35;;;2.80;;
42590;SDS011;28218;53.342;-6.216;2023-07-20T04:34:47;3.97;;;2.88;;
42590;SDS011;28218;53.342;-6.216;2023-07-20T04:37:15;4.30;;;3.40;;
42590;SDS011;28218;53.342;-6.216;2023-07-20T04:39:44;7.70;;;3.00;;
42590;SDS011;28218;53.342;-6.216;2023-07-20T04:42:13;8.00;;;3.30;;
42590;SDS011;28218;53.342;-6.216;2023-07-20T04:44:42;5.05;;;3.60;;
42590;SDS011;28218;53.342;-6.216;2023-07-20T04:47:10;5.50;;;2.97;;
42590;SDS011;28218;53.342;-6.216;2023-07-20T04:49:38;6.18;;;3.90;;
42590;SDS011;28218;53.342;-6.216;2023-07-20T04:52:06;8.38;;;3.70;;
42590;SDS011;28218;53.342;-6.216;2023-07-20T04:54:35;8.00;;;3.80;;
42590;SDS011;28218;53.342;-6.216;2023-07-20T04:57:11;5.90;;;3.22;;
42590;SDS011;28218;53.342;-6.216;2023-07-20T04:59:39;5.18;;;3.53;;
42590;SDS011;28218;53.342;-6.216;2023-07-20T05:02:08;4.25;;;3.40;;
42590;SDS011;28218;53.342;-6.216;2023-07-20T05:04:36;5.40;;;3.05;;
42590;SDS011;28218;53.342;-6.216;2023-07-20T05:07:05;5.75;;;3.00;;
42590;SDS011;28218;53.342;-6.216;2023-07-20T05:09:34;4.28;;;3.10;;
42590;SDS011;28218;53.342;-6.216;2023-07-20T05:12:02;4.53;;;3.20;;
42590;SDS011;28218;53.342;-6.216;2023-07-20T05:14:32;9.52;;;3.22;;
42590;SDS011;28218;53.342;-6.216;2023-07-20T05:17:01;5.88;;;3.67;;
42590;SDS011;28218;53.342;-6.216;2023-07-20T05:19:29;5.78;;;3.63;;
42590;SDS011;28218;53.342;-6.216;2023-07-20T05:21:57;5.57;;;4.13;;
42590;SDS011;28218;53.342;-6.216;2023-07-20T05:24:25;5.40;;;3.55;;
42590;SDS011;28218;53.342;-6.216;2023-07-20T05:26:53;4.88;;;3.45;;
42590;SDS011;28218;53.342;-6.216;2023-07-20T05:29:22;4.38;;;3.72;;
42590;SDS011;28218;53.342;-6.216;2023-07-20T05:31:51;4.63;;;3.10;;
42590;SDS011;28218;53.342;-6.216;2023-07-20T05:34:19;4.90;;;3.45;;
42590;SDS011;28218;53.342;-6.216;2023-07-20T05:36:47;6.72;;;3.60;;
42590;SDS011;28218;53.342;-6.216;2023-07-20T05:39:16;7.95;;;3.88;;
42590;SDS011;28218;53.342;-6.216;2023-07-20T05:41:45;5.40;;;3.63;;
42590;SDS011;28218;53.342;-6.216;2023-07-20T05:44:13;5.95;;;3.75;;
42590;SDS011;28218;53.342;-6.216;2023-07-20T05:46:41;8.05;;;4.50;;
42590;SDS011;28218;53.342;-6.216;2023-07-20T05:49:23;5.38;;;3.65;;
42590;SDS011;28218;53.342;-6.216;2023-07-20T05:51:52;9.82;;;4.95;;
42590;SDS011;28218;53.342;-6.216;2023-07-20T05:54:20;4.93;;;3.42;;
42590;SDS011;28218;53.342;-6.216;2023-07-20T05:56:48;4.85;;;3.83;;
42590;SDS011;28218;53.342;-6.216;2023-07-20T05:59:17;5.03;;;4.13;;
42590;SDS011;28218;53.342;-6.216;2023-07-20T06:01:46;6.22;;;4.28;;
42590;SDS011;28218;53.342;-6.216;2023-07-20T06:04:15;6.40;;;4.22;;
42590;SDS011;28218;53.342;-6.216;2023-07-20T06:06:45;8.13;;;4.18;;
42590;SDS011;28218;53.342;-6.216;2023-07-20T06:09:13;6.65;;;4.32;;
42590;SDS011;28218;53.342;-6.216;2023-07-20T06:11:41;5.57;;;3.92;;
42590;SDS011;28218;53.342;-6.216;2023-07-20T06:14:09;6.88;;;4.82;;
42590;SDS011;28218;53.342;-6.216;2023-07-20T06:16:38;9.65;;;4.82;;
42590;SDS011;28218;53.342;-6.216;2023-07-20T06:19:06;10.00;;;4.72;;
42590;SDS011;28218;53.342;-6.216;2023-07-20T06:21:34;14.82;;;5.80;;
42590;SDS011;28218;53.342;-6.216;2023-07-20T06:24:04;8.23;;;4.35;;
42590;SDS011;28218;53.342;-6.216;2023-07-20T06:26:32;6.28;;;4.13;;
42590;SDS011;28218;53.342;-6.216;2023-07-20T06:29:05;6.03;;;4.18;;
42590;SDS011;28218;53.342;-6.216;2023-07-20T06:31:33;8.13;;;4.30;;
42590;SDS011;28218;53.342;-6.216;2023-07-20T06:34:02;11.52;;;5.13;;
42590;SDS011;28218;53.342;-6.216;2023-07-20T06:36:31;6.95;;;5.05;;
42590;SDS011;28218;53.342;-6.216;2023-07-20T06:38:59;7.72;;;5.25;;
42590;SDS011;28218;53.342;-6.216;2023-07-20T06:41:33;7.13;;;4.80;;
42590;SDS011;28218;53.342;-6.216;2023-07-20T06:44:04;9.55;;;4.93;;
42590;SDS011;28218;53.342;-6.216;2023-07-20T06:46:32;10.05;;;5.68;;
42590;SDS011;28218;53.342;-6.216;2023-07-20T06:49:01;8.98;;;5.13;;
42590;SDS011;28218;53.342;-6.216;2023-07-20T06:51:32;8.20;;;5.05;;
42590;SDS011;28218;53.342;-6.216;2023-07-20T06:54:00;17.70;;;5.80;;
42590;SDS011;28218;53.342;-6.216;2023-07-20T06:56:31;8.65;;;5.22;;
42590;SDS011;28218;53.342;-6.216;2023-07-20T06:59:01;12.13;;;4.85;;
42590;SDS011;28218;53.342;-6.216;2023-07-20T07:01:30;8.57;;;5.75;;
42590;SDS011;28218;53.342;-6.216;2023-07-20T07:03:58;8.13;;;5.10;;
42590;SDS011;28218;53.342;-6.216;2023-07-20T07:06:26;10.98;;;5.50;;
42590;SDS011;28218;53.342;-6.216;2023-07-20T07:08:55;8.85;;;5.65;;
42590;SDS011;28218;53.342;-6.216;2023-07-20T07:11:24;11.57;;;5.75;;
42590;SDS011;28218;53.342;-6.216;2023-07-20T07:13:52;9.60;;;5.65;;
42590;SDS011;28218;53.342;-6.216;2023-07-20T07:16:24;10.00;;;5.47;;
42590;SDS011;28218;53.342;-6.216;2023-07-20T07:18:53;8.23;;;4.68;;
42590;SDS011;28218;53.342;-6.216;2023-07-20T07:21:26;6.75;;;4.65;;
42590;SDS011;28218;53.342;-6.216;2023-07-20T07:23:54;6.22;;;4.70;;
42590;SDS011;28218;53.342;-6.216;2023-07-20T07:26:24;12.00;;;4.68;;
42590;SDS011;28218;53.342;-6.216;2023-07-20T07:28:52;10.13;;;4.78;;
42590;SDS011;28218;53.342;-6.216;2023-07-20T07:31:20;8.95;;;5.43;;
42590;SDS011;28218;53.342;-6.216;2023-07-20T07:33:51;8.77;;;5.85;;
42590;SDS011;28218;53.342;-6.216;2023-07-20T07:36:19;9.02;;;6.00;;
42590;SDS011;28218;53.342;-6.216;2023-07-20T07:38:48;9.00;;;5.55;;
42590;SDS011;28218;53.342;-6.216;2023-07-20T07:41:36;10.98;;;5.07;;
42590;SDS011;28218;53.342;-6.216;2023-07-20T07:44:04;8.73;;;5.38;;
42590;SDS011;28218;53.342;-6.216;2023-07-20T07:46:32;8.35;;;5.22;;
42590;SDS011;28218;53.342;-6.216;2023-07-20T07:49:02;10.57;;;5.93;;
42590;SDS011;28218;53.342;-6.216;2023-07-20T07:51:30;10.43;;;7.45;;
42590;SDS011;28218;53.342;-6.216;2023-07-20T07:53:59;11.85;;;7.30;;
42590;SDS011;28218;53.342;-6.216;2023-07-20T07:56:27;9.52;;;6.50;;
42590;SDS011;28218;53.342;-6.216;2023-07-20T07:58:55;13.93;;;6.75;;
42590;SDS011;28218;53.342;-6.216;2023-07-20T08:01:23;9.65;;;6.20;;
42590;SDS011;28218;53.342;-6.216;2023-07-20T08:03:52;9.70;;;6.40;;
42590;SDS011;28218;53.342;-6.216;2023-07-20T08:06:21;10.13;;;5.35;;
42590;SDS011;28218;53.342;-6.216;2023-07-20T08:08:51;11.40;;;7.10;;
42590;SDS011;28218;53.342;-6.216;2023-07-20T08:11:19;8.65;;;6.85;;
42590;SDS011;28218;53.342;-6.216;2023-07-20T08:13:47;9.50;;;6.47;;
42590;SDS011;28218;53.342;-6.216;2023-07-20T08:16:15;10.45;;;6.35;;
42590;SDS011;28218;53.342;-6.216;2023-07-20T08:18:43;9.75;;;6.07;;
42590;SDS011;28218;53.342;-6.216;2023-07-20T08:21:12;8.45;;;5.78;;
42590;SDS011;28218;53.342;-6.216;2023-07-20T08:23:42;12.20;;;7.15;;
42590;SDS011;28218;53.342;-6.216;2023-07-20T08:26:10;9.30;;;6.00;;
42590;SDS011;28218;53.342;-6.216;2023-07-20T08:28:39;12.57;;;7.53;;
42590;SDS011;28218;53.342;-6.216;2023-07-20T08:31:07;11.23;;;7.07;;
42590;SDS011;28218;53.342;-6.216;2023-07-20T08:33:35;10.75;;;7.72;;
42590;SDS011;28218;53.342;-6.216;2023-07-20T08:36:03;11.38;;;7.30;;
42590;SDS011;28218;53.342;-6.216;2023-07-20T08:38:32;13.52;;;7.90;;
42590;SDS011;28218;53.342;-6.216;2023-07-20T08:41:02;12.68;;;8.27;;
42590;SDS011;28218;53.342;-6.216;2023-07-20T08:43:30;10.50;;;8.13;;
42590;SDS011;28218;53.342;-6.216;2023-07-20T08:46:01;10.00;;;7.23;;
42590;SDS011;28218;53.342;-6.216;2023-07-20T08:48:30;12.30;;;7.80;;
42590;SDS011;28218;53.342;-6.216;2023-07-20T08:50:59;12.10;;;7.75;;
42590;SDS011;28218;53.342;-6.216;2023-07-20T08:53:29;12.75;;;7.70;;
42590;SDS011;28218;53.342;-6.216;2023-07-20T08:55:59;11.88;;;7.93;;
42590;SDS011;28218;53.342;-6.216;2023-07-20T08:58:30;15.13;;;7.38;;
42590;SDS011;28218;53.342;-6.216;2023-07-20T09:01:00;10.77;;;7.25;;
42590;SDS011;28218;53.342;-6.216;2023-07-20T09:03:29;11.15;;;6.93;;
42590;SDS011;28218;53.342;-6.216;2023-07-20T09:05:58;8.65;;;6.30;;
42590;SDS011;28218;53.342;-6.216;2023-07-20T09:08:26;6.53;;;5.57;;
42590;SDS011;28218;53.342;-6.216;2023-07-20T09:10:54;7.20;;;5.18;;
42590;SDS011;28218;53.342;-6.216;2023-07-20T09:13:24;7.95;;;6.30;;
42590;SDS011;28218;53.342;-6.216;2023-07-20T09:18:24;6.63;;;4.97;;
42590;SDS011;28218;53.342;-6.216;2023-07-20T09:20:52;6.40;;;4.72;;
42590;SDS011;28218;53.342;-6.216;2023-07-20T09:23:22;6.00;;;4.40;;
42590;SDS011;28218;53.342;-6.216;2023-07-20T09:25:59;7.70;;;5.85;;
42590;SDS011;28218;53.342;-6.216;2023-07-20T09:28:27;5.82;;;4.30;;
42590;SDS011;28218;53.342;-6.216;2023-07-20T09:30:57;8.02;;;4.45;;
42590;SDS011;28218;53.342;-6.216;2023-07-20T09:33:25;4.93;;;4.20;;
42590;SDS011;28218;53.342;-6.216;2023-07-20T09:35:54;10.68;;;6.03;;
42590;SDS011;28218;53.342;-6.216;2023-07-20T09:38:50;7.63;;;5.88;;
42590;SDS011;28218;53.342;-6.216;2023-07-20T09:41:21;7.47;;;5.97;;
42590;SDS011;28218;53.342;-6.216;2023-07-20T09:43:52;7.00;;;5.07;;
42590;SDS011;28218;53.342;-6.216;2023-07-20T09:46:23;5.88;;;5.05;;
42590;SDS011;28218;53.342;-6.216;2023-07-20T09:48:54;9.35;;;5.72;;
42590;SDS011;28218;53.342;-6.216;2023-07-20T09:51:25;7.55;;;5.80;;
42590;SDS011;28218;53.342;-6.216;2023-07-20T09:53:54;12.60;;;6.38;;
42590;SDS011;28218;53.342;-6.216;2023-07-20T09:56:23;8.60;;;5.45;;
42590;SDS011;28218;53.342;-6.216;2023-07-20T09:58:53;6.35;;;4.80;;
42590;SDS011;28218;53.342;-6.216;2023-07-20T10:01:23;5.38;;;4.35;;
42590;SDS011;28218;53.342;-6.216;2023-07-20T10:03:54;6.55;;;5.07;;
42590;SDS011;28218;53.342;-6.216;2023-07-20T10:06:24;6.57;;;5.50;;
42590;SDS011;28218;53.342;-6.216;2023-07-20T10:08:57;8.23;;;5.78;;
42590;SDS011;28218;53.342;-6.216;2023-07-20T10:11:30;13.60;;;8.82;;
42590;SDS011;28218;53.342;-6.216;2023-07-20T10:14:03;8.65;;;5.63;;
42590;SDS011;28218;53.342;-6.216;2023-07-20T10:16:35;6.93;;;5.43;;
42590;SDS011;28218;53.342;-6.216;2023-07-20T10:19:05;8.07;;;6.03;;
42590;SDS011;28218;53.342;-6.216;2023-07-20T10:21:40;7.85;;;6.05;;
42590;SDS011;28218;53.342;-6.216;2023-07-20T10:24:09;8.07;;;6.07;;
42590;SDS011;28218;53.342;-6.216;2023-07-20T10:26:39;9.85;;;5.50;;
42590;SDS011;28218;53.342;-6.216;2023-07-20T10:29:08;6.93;;;4.70;;
42590;SDS011;28218;53.342;-6.216;2023-07-20T10:31:38;8.27;;;5.20;;
42590;SDS011;28218;53.342;-6.216;2023-07-20T10:34:07;7.43;;;5.50;;
42590;SDS011;28218;53.342;-6.216;2023-07-20T10:36:43;6.70;;;5.00;;
42590;SDS011;28218;53.342;-6.216;2023-07-20T10:39:22;10.05;;;5.35;;
42590;SDS011;28218;53.342;-6.216;2023-07-20T10:41:53;7.63;;;5.78;;
42590;SDS011;28218;53.342;-6.216;2023-07-20T10:44:27;9.35;;;6.38;;
42590;SDS011;28218;53.342;-6.216;2023-07-20T10:47:00;12.43;;;6.82;;
42590;SDS011;28218;53.342;-6.216;2023-07-20T10:49:30;11.32;;;7.03;;
42590;SDS011;28218;53.342;-6.216;2023-07-20T10:52:03;10.30;;;7.57;;
42590;SDS011;28218;53.342;-6.216;2023-07-20T10:54:46;8.18;;;6.18;;
42590;SDS011;28218;53.342;-6.216;2023-07-20T10:57:23;8.57;;;5.78;;
42590;SDS011;28218;53.342;-6.216;2023-07-20T11:02:47;11.57;;;6.70;;
42590;SDS011;28218;53.342;-6.216;2023-07-20T11:05:33;10.18;;;5.53;;
42590;SDS011;28218;53.342;-6.216;2023-07-20T11:08:04;9.18;;;6.43;;
42590;SDS011;28218;53.342;-6.216;2023-07-20T11:10:33;8.38;;;6.13;;
42590;SDS011;28218;53.342;-6.216;2023-07-20T11:13:20;8.40;;;5.95;;
42590;SDS011;28218;53.342;-6.216;2023-07-20T11:16:03;9.65;;;6.38;;
42590;SDS011;28218;53.342;-6.216;2023-07-20T11:18:34;10.18;;;6.15;;
42590;SDS011;28218;53.342;-6.216;2023-07-20T11:21:10;8.98;;;6.45;;
42590;SDS011;28218;53.342;-6.216;2023-07-20T11:23:39;8.75;;;6.22;;
42590;SDS011;28218;53.342;-6.216;2023-07-20T11:26:08;8.70;;;6.10;;
42590;SDS011;28218;53.342;-6.216;2023-07-20T11:28:36;9.77;;;5.97;;
42590;SDS011;28218;53.342;-6.216;2023-07-20T11:31:04;5.53;;;4.78;;
42590;SDS011;28218;53.342;-6.216;2023-07-20T11:33:32;7.55;;;5.60;;
42590;SDS011;28218;53.342;-6.216;2023-07-20T11:36:02;5.60;;;4.82;;
42590;SDS011;28218;53.342;-6.216;2023-07-20T11:38:52;9.25;;;4.90;;
42590;SDS011;28218;53.342;-6.216;2023-07-20T11:41:21;7.18;;;6.05;;
42590;SDS011;28218;53.342;-6.216;2023-07-20T11:43:49;5.88;;;5.28;;
42590;SDS011;28218;53.342;-6.216;2023-07-20T11:46:17;8.38;;;5.60;;
42590;SDS011;28218;53.342;-6.216;2023-07-20T11:48:47;8.02;;;5.72;;
42590;SDS011;28218;53.342;-6.216;2023-07-20T11:51:16;7.68;;;5.32;;
42590;SDS011;28218;53.342;-6.216;2023-07-20T11:53:44;7.97;;;6.40;;
42590;SDS011;28218;53.342;-6.216;2023-07-20T11:56:14;8.43;;;6.65;;
42590;SDS011;28218;53.342;-6.216;2023-07-20T11:58:43;9.18;;;5.65;;
42590;SDS011;28218;53.342;-6.216;2023-07-20T12:01:12;7.38;;;5.80;;
42590;SDS011;28218;53.342;-6.216;2023-07-20T12:03:41;8.25;;;6.68;;
42590;SDS011;28218;53.342;-6.216;2023-07-20T12:06:13;9.77;;;6.68;;
42590;SDS011;28218;53.342;-6.216;2023-07-20T12:08:42;7.38;;;5.90;;
42590;SDS011;28218;53.342;-6.216;2023-07-20T12:11:11;8.65;;;6.13;;
42590;SDS011;28218;53.342;-6.216;2023-07-20T12:13:41;9.35;;;6.40;;
42590;SDS011;28218;53.342;-6.216;2023-07-20T12:16:11;12.18;;;6.75;;
42590;SDS011;28218;53.342;-6.216;2023-07-20T12:18:41;8.00;;;6.60;;
42590;SDS011;28218;53.342;-6.216;2023-07-20T12:21:11;13.18;;;7.22;;
42590;SDS011;28218;53.342;-6.216;2023-07-20T12:23:40;14.68;;;6.20;;
42590;SDS011;28218;53.342;-6.216;2023-07-20T12:26:10;12.65;;;7.20;;
42590;SDS011;28218;53.342;-6.216;2023-07-20T12:28:38;13.48;;;7.18;;
42590;SDS011;28218;53.342;-6.216;2023-07-20T12:31:08;11.98;;;7.30;;
42590;SDS011;28218;53.342;-6.216;2023-07-20T12:33:37;11.40;;;7.63;;
42590;SDS011;28218;53.342;-6.216;2023-07-20T12:36:05;12.05;;;8.15;;
42590;SDS011;28218;53.342;-6.216;2023-07-20T12:38:35;13.63;;;7.45;;
42590;SDS011;28218;53.342;-6.216;2023-07-20T12:41:03;11.43;;;7.57;;
42590;SDS011;28218;53.342;-6.216;2023-07-20T12:43:32;12.43;;;7.88;;
42590;SDS011;28218;53.342;-6.216;2023-07-20T12:46:00;16.10;;;8.98;;
42590;SDS011;28218;53.342;-6.216;2023-07-20T12:48:29;14.50;;;8.50;;
42590;SDS011;28218;53.342;-6.216;2023-07-20T12:50:57;17.23;;;8.10;;
42590;SDS011;28218;53.342;-6.216;2023-07-20T12:53:26;12.80;;;8.30;;
42590;SDS011;28218;53.342;-6.216;2023-07-20T12:55:55;9.23;;;7.30;;
42590;SDS011;28218;53.342;-6.216;2023-07-20T12:58:24;14.48;;;7.30;;
42590;SDS011;28218;53.342;-6.216;2023-07-20T13:00:52;12.50;;;7.50;;
42590;SDS011;28218;53.342;-6.216;2023-07-20T13:03:21;13.15;;;7.85;;
42590;SDS011;28218;53.342;-6.216;2023-07-20T13:05:52;11.32;;;6.63;;
42590;SDS011;28218;53.342;-6.216;2023-07-20T13:08:23;11.40;;;7.45;;
42590;SDS011;28218;53.342;-6.216;2023-07-20T13:10:53;8.15;;;6.38;;
42590;SDS011;28218;53.342;-6.216;2023-07-20T13:13:23;13.23;;;7.35;;
42590;SDS011;28218;53.342;-6.216;2023-07-20T13:15:51;11.02;;;7.78;;
42590;SDS011;28218;53.342;-6.216;2023-07-20T13:18:21;9.93;;;5.88;;
42590;SDS011;28218;53.342;-6.216;2023-07-20T13:20:49;10.40;;;6.55;;
42590;SDS011;28218;53.342;-6.216;2023-07-20T13:23:17;9.07;;;5.53;;
42590;SDS011;28218;53.342;-6.216;2023-07-20T13:25:45;5.53;;;4.95;;
42590;SDS011;28218;53.342;-6.216;2023-07-20T13:28:14;6.43;;;5.38;;
42590;SDS011;28218;53.342;-6.216;2023-07-20T13:30:43;6.95;;;5.80;;
42590;SDS011;28218;53.342;-6.216;2023-07-20T13:33:12;6.20;;;5.60;;
42590;SDS011;28218;53.342;-6.216;2023-07-20T13:38:15;9.82;;;6.55;;
42590;SDS011;28218;53.342;-6.216;2023-07-20T13:40:43;13.63;;;8.82;;
42590;SDS011;28218;53.342;-6.216;2023-07-20T13:43:12;11.13;;;6.72;;
42590;SDS011;28218;53.342;-6.216;2023-07-20T13:45:40;10.82;;;7.40;;
42590;SDS011;28218;53.342;-6.216;2023-07-20T13:48:10;7.05;;;6.35;;
42590;SDS011;28218;53.342;-6.216;2023-07-20T13:50:42;7.53;;;6.50;;
42590;SDS011;28218;53.342;-6.216;2023-07-20T13:53:27;11.65;;;7.15;;
42590;SDS011;28218;53.342;-6.216;2023-07-20T13:55:58;18.88;;;8.10;;
42590;SDS011;28218;53.342;-6.216;2023-07-20T13:58:29;11.63;;;8.23;;
42590;SDS011;28218;53.342;-6.216;2023-07-20T14:00:58;13.73;;;8.43;;
42590;SDS011;28218;53.342;-6.216;2023-07-20T14:03:27;13.68;;;9.60;;
42590;SDS011;28218;53.342;-6.216;2023-07-20T14:05:56;12.18;;;9.20;;
42590;SDS011;28218;53.342;-6.216;2023-07-20T14:08:27;11.40;;;8.93;;
42590;SDS011;28218;53.342;-6.216;2023-07-20T14:10:56;12.25;;;9.30;;
42590;SDS011;28218;53.342;-6.216;2023-07-20T14:13:27;11.52;;;8.65;;
42590;SDS011;28218;53.342;-6.216;2023-07-20T14:16:12;16.70;;;9.50;;
42590;SDS011;28218;53.342;-6.216;2023-07-20T14:18:42;15.48;;;9.75;;
42590;SDS011;28218;53.342;-6.216;2023-07-20T14:21:15;12.23;;;9.23;;
42590;SDS011;28218;53.342;-6.216;2023-07-20T14:23:45;9.63;;;7.93;;
42590;SDS011;28218;53.342;-6.216;2023-07-20T14:26:14;14.05;;;8.90;;
42590;SDS011;28218;53.342;-6.216;2023-07-20T14:28:42;15.13;;;9.80;;
42590;SDS011;28218;53.342;-6.216;2023-07-20T14:31:10;19.48;;;9.98;;
42590;SDS011;28218;53.342;-6.216;2023-07-20T14:33:39;11.27;;;8.70;;
42590;SDS011;28218;53.342;-6.216;2023-07-20T14:36:09;16.00;;;8.73;;
42590;SDS011;28218;53.342;-6.216;2023-07-20T14:38:37;10.50;;;8.20;;
42590;SDS011;28218;53.342;-6.216;2023-07-20T14:41:07;9.82;;;8.00;;
42590;SDS011;28218;53.342;-6.216;2023-07-20T14:43:35;13.40;;;8.10;;
42590;SDS011;28218;53.342;-6.216;2023-07-20T14:46:05;10.40;;;9.25;;
42590;SDS011;28218;53.342;-6.216;2023-07-20T14:48:33;14.27;;;9.52;;
42590;SDS011;28218;53.342;-6.216;2023-07-20T14:51:01;18.40;;;9.38;;
42590;SDS011;28218;53.342;-6.216;2023-07-20T14:53:32;14.60;;;9.05;;
42590;SDS011;28218;53.342;-6.216;2023-07-20T14:56:02;10.73;;;8.95;;
42590;SDS011;28218;53.342;-6.216;2023-07-20T14:58:31;12.13;;;7.85;;